Time;durP1;ratioP1;P1;durP2;ratioP2;P2;SDS_P1;SDS_P2;PMS_P1;PMS_P2;Temp;Humidity;BMP_temperature;BMP_pressure;BME280_temperature;BME280_humidity;BME280_pressure;Samples;Min_cycle;Max_cycle;Signal;HPM_P1;HPM_P2
2021/06/03 00:00:23;;;;;;;5.27;4.87;;;19.10;99.90;;;;;;5120763;28;20183;-69
2021/06/03 00:02:52;;;;;;;5.07;4.77;;;19.10;99.90;;;;;;5119606;28;20397;-68
2021/06/03 00:05:22;;;;;;;5.90;5.27;;;19.00;99.90;;;;;;5120987;28;20425;-68
2021/06/03 00:07:50;;;;;;;5.27;4.77;;;18.90;99.90;;;;;;5118594;28;20191;-69
2021/06/03 00:10:22;;;;;;;7.77;4.90;;;18.90;99.90;;;;;;5115849;28;20211;-69
2021/06/03 00:12:51;;;;;;;5.33;4.80;;;18.90;99.90;;;;;;5102937;28;20184;-69
2021/06/03 00:15:19;;;;;;;5.47;4.97;;;19.00;99.90;;;;;;5121448;28;20223;-68
2021/06/03 00:17:48;;;;;;;5.37;4.90;;;19.00;99.90;;;;;;5117774;27;20281;-69
2021/06/03 00:20:23;;;;;;;5.60;5.00;;;19.00;99.90;;;;;;5122382;28;20251;-69
2021/06/03 00:22:52;;;;;;;5.40;4.90;;;18.90;99.90;;;;;;5118399;28;20189;-69
2021/06/03 00:25:20;;;;;;;5.47;5.03;;;19.00;99.90;;;;;;5120419;28;20205;-65
2021/06/03 00:27:48;;;;;;;5.50;4.83;;;18.90;99.90;;;;;;5117217;28;20232;-69
2021/06/03 00:30:16;;;;;;;5.37;4.87;;;18.90;99.90;;;;;;5121768;28;20211;-69
2021/06/03 00:32:44;;;;;;;6.77;5.03;;;18.80;99.90;;;;;;5120864;28;20191;-68
2021/06/03 00:35:14;;;;;;;8.33;5.30;;;18.90;99.90;;;;;;5121939;28;20379;-68
2021/06/03 00:37:42;;;;;;;5.93;5.43;;;18.90;99.90;;;;;;5119007;28;21421;-68
2021/06/03 00:40:12;;;;;;;5.83;5.23;;;18.90;99.90;;;;;;5108623;28;20418;-68
2021/06/03 00:42:40;;;;;;;5.00;4.57;;;18.80;99.90;;;;;;5121013;28;20248;-68
2021/06/03 00:45:11;;;;;;;6.17;4.77;;;18.80;99.90;;;;;;5125434;28;20377;-68
2021/06/03 00:47:39;;;;;;;5.30;4.83;;;18.70;99.90;;;;;;5119579;28;20190;-67
2021/06/03 00:50:11;;;;;;;5.57;5.07;;;18.70;99.90;;;;;;5125296;28;20206;-68
2021/06/03 00:52:40;;;;;;;5.33;4.93;;;18.70;99.90;;;;;;5119271;28;20185;-63
2021/06/03 00:55:09;;;;;;;7.60;5.23;;;18.60;99.90;;;;;;5122102;28;20206;-68
2021/06/03 00:57:37;;;;;;;5.30;4.70;;;18.60;99.90;;;;;;5119682;28;20187;-68
2021/06/03 01:00:07;;;;;;;5.17;4.77;;;18.60;99.90;;;;;;5096283;28;20199;-68
2021/06/03 01:02:54;;;;;;;5.70;5.30;;;18.60;99.90;;;;;;5115872;28;20190;-68
2021/06/03 01:05:24;;;;;;;5.60;4.80;;;18.60;99.90;;;;;;5114521;28;20233;-68
2021/06/03 01:07:58;;;;;;;5.77;5.37;;;18.50;99.90;;;;;;5116631;28;20210;-67
2021/06/03 01:10:31;;;;;;;6.07;4.90;;;18.50;99.90;;;;;;5119206;28;20218;-68
2021/06/03 01:13:08;;;;;;;5.30;4.80;;;18.50;99.90;;;;;;5122729;28;20232;-68
2021/06/03 01:15:41;;;;;;;6.33;5.73;;;18.50;99.90;;;;;;5121651;27;20367;-68
2021/06/03 01:18:09;;;;;;;6.00;5.60;;;18.40;99.90;;;;;;5088599;28;20179;-68
2021/06/03 01:20:38;;;;;;;5.73;5.33;;;18.40;99.90;;;;;;5123829;28;20234;-68
2021/06/03 01:23:14;;;;;;;5.80;5.30;;;18.40;99.90;;;;;;5125097;28;20708;-68
2021/06/03 01:25:45;;;;;;;5.20;4.90;;;18.30;99.90;;;;;;5112002;28;20275;-68
2021/06/03 01:28:15;;;;;;;6.17;5.67;;;18.20;99.90;;;;;;5122299;28;20192;-64
2021/06/03 01:30:46;;;;;;;6.07;5.47;;;18.20;99.90;;;;;;5114954;28;20210;-68
2021/06/03 01:33:17;;;;;;;6.30;5.63;;;18.20;99.90;;;;;;5119906;28;20200;-68
2021/06/03 01:35:49;;;;;;;6.77;5.17;;;18.10;99.90;;;;;;5114982;28;20461;-68
2021/06/03 01:38:20;;;;;;;5.73;5.33;;;18.10;99.90;;;;;;5113198;28;20183;-69
2021/06/03 01:40:50;;;;;;;7.50;5.20;;;18.10;99.90;;;;;;5095153;28;20226;-70
2021/06/03 01:43:20;;;;;;;5.50;5.00;;;18.10;99.90;;;;;;5114724;28;20233;-68
2021/06/03 01:45:49;;;;;;;5.80;5.30;;;18.10;99.90;;;;;;5110987;28;20205;-68
2021/06/03 01:48:20;;;;;;;5.30;4.90;;;18.10;99.90;;;;;;5118266;28;20194;-68
2021/06/03 01:50:51;;;;;;;6.93;4.83;;;18.10;99.90;;;;;;5115595;28;20309;-68
2021/06/03 01:53:21;;;;;;;6.30;4.90;;;18.10;99.90;;;;;;5112611;28;20356;-68
2021/06/03 01:55:52;;;;;;;5.87;5.30;;;18.10;99.90;;;;;;5110211;28;20179;-67
2021/06/03 01:58:20;;;;;;;6.33;5.73;;;18.10;99.90;;;;;;5118894;28;20211;-68
2021/06/03 02:00:49;;;;;;;7.17;5.37;;;18.10;99.90;;;;;;5110426;28;20198;-67
2021/06/03 02:03:18;;;;;;;5.70;5.17;;;18.00;99.90;;;;;;5091174;28;20263;-68
2021/06/03 02:05:45;;;;;;;5.87;5.27;;;18.00;99.90;;;;;;5113947;28;20199;-68
2021/06/03 02:08:13;;;;;;;6.97;5.80;;;18.00;99.90;;;;;;5123553;28;20236;-68
2021/06/03 02:11:01;;;;;;;5.73;5.33;;;17.90;99.90;;;;;;5118123;28;20206;-68
2021/06/03 02:13:34;;;;;;;6.33;5.23;;;17.90;99.90;;;;;;5119959;28;20289;-68
2021/06/03 02:16:09;;;;;;;6.10;5.57;;;17.90;99.90;;;;;;5115725;28;20214;-68
2021/06/03 02:18:43;;;;;;;5.80;5.40;;;17.90;99.90;;;;;;5122712;28;20212;-68
2021/06/03 02:21:12;;;;;;;5.97;5.40;;;17.90;99.90;;;;;;5116544;28;20213;-68
2021/06/03 02:23:39;;;;;;;6.50;5.87;;;17.90;99.90;;;;;;5118849;27;20183;-68
2021/06/03 02:26:09;;;;;;;6.73;5.87;;;17.90;99.90;;;;;;5121563;28;20175;-68
2021/06/03 02:28:37;;;;;;;6.67;6.00;;;17.90;99.90;;;;;;5120391;28;20197;-68
2021/06/03 02:31:05;;;;;;;5.93;5.43;;;17.90;99.90;;;;;;5115316;28;20211;-68
2021/06/03 02:33:34;;;;;;;8.13;6.23;;;17.80;99.90;;;;;;5115030;28;20305;-68
2021/06/03 02:36:02;;;;;;;6.53;5.97;;;17.80;99.90;;;;;;5111868;28;20184;-68
2021/06/03 02:38:32;;;;;;;6.93;5.60;;;17.80;99.90;;;;;;5118637;28;20239;-68
2021/06/03 02:41:02;;;;;;;7.57;6.20;;;17.80;99.90;;;;;;5114188;28;20188;-68
2021/06/03 02:43:32;;;;;;;6.13;5.70;;;17.80;99.90;;;;;;5114548;28;20198;-68
2021/06/03 02:46:02;;;;;;;6.70;6.10;;;17.70;99.90;;;;;;5118709;28;20207;-68
2021/06/03 02:48:29;;;;;;;6.33;5.90;;;17.70;99.90;;;;;;5120717;28;20216;-68
2021/06/03 02:50:58;;;;;;;7.23;6.60;;;17.70;99.90;;;;;;5119149;28;20252;-68
2021/06/03 02:53:26;;;;;;;6.43;6.00;;;17.70;99.90;;;;;;5115435;28;20344;-67
2021/06/03 02:55:54;;;;;;;8.43;6.23;;;17.70;99.90;;;;;;5119638;28;20387;-68
2021/06/03 02:58:22;;;;;;;6.53;5.93;;;17.70;99.90;;;;;;5123660;28;20182;-68
2021/06/03 03:00:52;;;;;;;6.83;6.17;;;17.80;99.90;;;;;;5116367;28;20193;-68
2021/06/03 03:03:20;;;;;;;6.70;6.10;;;17.80;99.90;;;;;;5119702;28;20255;-68
2021/06/03 03:05:48;;;;;;;8.43;5.93;;;17.70;99.90;;;;;;5113525;28;20309;-67
2021/06/03 03:08:16;;;;;;;10.20;6.50;;;17.70;99.90;;;;;;5116713;28;20183;-68
2021/06/03 03:10:47;;;;;;;6.97;6.27;;;17.70;99.90;;;;;;5116861;28;20209;-68
2021/06/03 03:13:17;;;;;;;6.40;5.90;;;17.70;99.90;;;;;;5118476;28;20183;-68
2021/06/03 03:15:46;;;;;;;6.73;6.07;;;17.60;99.90;;;;;;5115189;28;20196;-68
2021/06/03 03:18:15;;;;;;;6.57;5.97;;;17.60;99.90;;;;;;5115768;28;20181;-67
2021/06/03 03:20:44;;;;;;;7.80;6.23;;;17.60;99.90;;;;;;5117896;28;20183;-68
2021/06/03 03:23:13;;;;;;;8.70;6.37;;;17.60;99.90;;;;;;5096975;28;20178;-68
2021/06/03 03:25:41;;;;;;;10.40;6.67;;;17.60;99.90;;;;;;5117412;28;20358;-68
2021/06/03 03:28:10;;;;;;;7.37;6.70;;;17.60;99.90;;;;;;5118096;28;20175;-67
2021/06/03 03:30:43;;;;;;;9.10;6.47;;;17.60;99.90;;;;;;5116702;28;20207;-68
2021/06/03 03:33:13;;;;;;;6.73;6.13;;;17.60;99.90;;;;;;5118956;28;20183;-67
2021/06/03 03:35:46;;;;;;;7.83;7.13;;;17.60;99.90;;;;;;5116550;28;20428;-69
2021/06/03 03:38:15;;;;;;;7.07;6.43;;;17.60;99.90;;;;;;5118522;28;20178;-68
2021/06/03 03:40:43;;;;;;;10.00;6.77;;;17.70;99.90;;;;;;5127180;27;20186;-68
2021/06/03 03:43:11;;;;;;;7.93;6.50;;;17.70;99.90;;;;;;5120531;27;20183;-68
2021/06/03 03:45:39;;;;;;;7.13;6.53;;;17.70;99.90;;;;;;5103709;28;20236;-68
2021/06/03 03:48:08;;;;;;;9.07;6.53;;;17.70;99.90;;;;;;5125342;28;20396;-68
2021/06/03 03:50:37;;;;;;;8.63;6.83;;;17.70;99.90;;;;;;5109455;28;20247;-67
2021/06/03 03:53:08;;;;;;;6.93;6.33;;;17.80;99.90;;;;;;5111942;28;20201;-68
2021/06/03 03:55:36;;;;;;;7.60;6.90;;;17.80;99.90;;;;;;5128113;28;20190;-68
2021/06/03 03:58:04;;;;;;;7.67;6.87;;;17.80;99.90;;;;;;5100510;28;20186;-68
2021/06/03 04:00:34;;;;;;;8.40;7.60;;;17.80;99.90;;;;;;5115800;27;20228;-67
2021/06/03 04:03:03;;;;;;;7.73;7.07;;;17.90;99.90;;;;;;5118130;27;20198;-67
2021/06/03 04:05:31;;;;;;;8.67;7.53;;;17.90;99.90;;;;;;5126191;27;20281;-68
2021/06/03 04:07:59;;;;;;;8.53;7.57;;;18.00;99.90;;;;;;5125368;27;20376;-66
2021/06/03 04:10:28;;;;;;;8.03;7.23;;;18.00;99.90;;;;;;5129031;27;20251;-67
2021/06/03 04:12:57;;;;;;;8.53;7.37;;;18.10;99.90;;;;;;5123331;27;20254;-67
2021/06/03 04:15:24;;;;;;;8.37;7.57;;;18.10;99.90;;;;;;5110254;27;20197;-67
2021/06/03 04:17:52;;;;;;;12.43;8.30;;;18.20;99.90;;;;;;5117887;27;20194;-67
2021/06/03 04:20:22;;;;;;;9.07;8.27;;;18.20;99.90;;;;;;5128617;28;20189;-68
2021/06/03 04:22:51;;;;;;;8.80;7.80;;;18.10;99.90;;;;;;5122100;28;20182;-67
2021/06/03 04:25:19;;;;;;;9.00;8.20;;;18.20;99.90;;;;;;5121596;27;20179;-67
2021/06/03 04:27:49;;;;;;;10.43;8.17;;;18.20;99.90;;;;;;5118931;28;20198;-67
2021/06/03 04:30:20;;;;;;;11.93;8.57;;;18.20;99.90;;;;;;5120516;27;20183;-68
2021/06/03 04:32:48;;;;;;;9.57;8.63;;;18.30;99.90;;;;;;5121920;27;20489;-67
2021/06/03 04:35:18;;;;;;;10.53;9.43;;;18.20;99.90;;;;;;5102928;28;20191;-67
2021/06/03 04:37:47;;;;;;;10.00;9.00;;;18.20;99.90;;;;;;5119530;28;20421;-68
2021/06/03 04:40:17;;;;;;;9.70;8.70;;;18.20;99.90;;;;;;5116202;28;20353;-67
2021/06/03 04:42:47;;;;;;;10.30;9.30;;;18.30;99.90;;;;;;5122966;27;20256;-68
2021/06/03 04:45:15;;;;;;;10.93;8.40;;;18.30;99.90;;;;;;5122351;28;20191;-67
2021/06/03 04:47:45;;;;;;;11.20;9.50;;;18.30;99.90;;;;;;5116289;28;20391;-67
2021/06/03 04:50:15;;;;;;;13.93;9.10;;;18.40;99.90;;;;;;5116156;28;20224;-68
2021/06/03 04:52:43;;;;;;;9.83;8.90;;;18.40;99.90;;;;;;5112728;28;20216;-68
2021/06/03 04:55:14;;;;;;;12.20;9.40;;;18.40;99.90;;;;;;5113249;27;20464;-68
2021/06/03 04:57:43;;;;;;;15.00;9.60;;;18.50;99.90;;;;;;5116799;28;20301;-67
2021/06/03 05:00:16;;;;;;;11.00;9.73;;;18.40;99.90;;;;;;5116824;28;20174;-67
2021/06/03 05:02:44;;;;;;;12.80;9.70;;;18.40;99.90;;;;;;5117947;28;20199;-67
2021/06/03 05:05:14;;;;;;;15.57;10.17;;;18.50;99.90;;;;;;5119655;28;20180;-67
2021/06/03 05:07:43;;;;;;;13.13;10.03;;;18.50;99.90;;;;;;5124832;28;20421;-67
2021/06/03 05:10:11;;;;;;;11.47;9.83;;;18.50;99.90;;;;;;5103133;27;20195;-68
2021/06/03 05:12:40;;;;;;;12.20;10.73;;;18.50;99.90;;;;;;5116855;28;20252;-68
2021/06/03 05:15:10;;;;;;;17.97;10.47;;;18.50;99.90;;;;;;5122269;28;20231;-67
2021/06/03 05:17:40;;;;;;;12.30;10.47;;;18.60;99.90;;;;;;5118879;28;20182;-68
2021/06/03 05:20:11;;;;;;;14.60;10.97;;;18.60;99.90;;;;;;5119132;28;20186;-68
2021/06/03 05:22:39;;;;;;;15.10;10.50;;;18.60;99.90;;;;;;5116059;28;20193;-67
2021/06/03 05:25:09;;;;;;;11.20;10.03;;;18.70;99.90;;;;;;5119629;28;20179;-69
2021/06/03 05:27:37;;;;;;;14.87;10.90;;;18.70;99.90;;;;;;5116017;28;20187;-67
2021/06/03 05:30:09;;;;;;;14.70;10.50;;;18.70;99.90;;;;;;5101911;28;20310;-67
2021/06/03 05:32:37;;;;;;;11.50;10.30;;;18.80;99.90;;;;;;5119237;28;20448;-67
2021/06/03 05:35:09;;;;;;;12.97;9.83;;;18.80;99.90;;;;;;5125142;28;20228;-67
2021/06/03 05:37:37;;;;;;;13.63;10.97;;;18.80;99.90;;;;;;5120701;28;20296;-68
2021/06/03 05:40:07;;;;;;;12.03;10.83;;;18.80;99.90;;;;;;5120497;28;20190;-67
2021/06/03 05:42:35;;;;;;;16.00;11.67;;;18.90;99.90;;;;;;5118423;28;20186;-67
2021/06/03 05:45:04;;;;;;;14.83;10.90;;;18.90;99.90;;;;;;5117445;28;20189;-68
2021/06/03 05:47:32;;;;;;;12.43;10.80;;;18.90;99.90;;;;;;5097253;28;20270;-68
2021/06/03 05:50:00;;;;;;;13.00;11.27;;;18.90;99.90;;;;;;5115452;28;20384;-68
2021/06/03 05:52:30;;;;;;;17.70;11.83;;;19.00;99.90;;;;;;5076116;28;20271;-67
2021/06/03 05:54:59;;;;;;;13.33;11.90;;;19.00;99.90;;;;;;5116140;27;20234;-68
2021/06/03 05:57:29;;;;;;;17.93;11.43;;;19.00;99.90;;;;;;5119926;28;20190;-67
2021/06/03 05:59:57;;;;;;;15.17;11.63;;;19.00;99.90;;;;;;5098648;28;20201;-67
2021/06/03 06:02:30;;;;;;;13.73;11.80;;;19.00;99.90;;;;;;5124156;28;20191;-68
2021/06/03 06:07:45;;;;;;;14.00;11.57;;;19.10;99.90;;;;;;5108586;28;20248;-67
2021/06/03 06:10:13;;;;;;;17.80;11.03;;;19.20;99.90;;;;;;5112923;28;20184;-68
2021/06/03 06:12:41;;;;;;;20.00;12.43;;;19.30;99.90;;;;;;5105044;28;20251;-66
2021/06/03 06:15:11;;;;;;;13.57;12.17;;;19.30;99.90;;;;;;5110485;28;20194;-67
2021/06/03 06:17:39;;;;;;;16.33;12.40;;;19.30;99.90;;;;;;5121934;28;20232;-68
2021/06/03 06:20:08;;;;;;;20.27;12.47;;;19.40;99.90;;;;;;5120621;28;20303;-68
2021/06/03 06:22:36;;;;;;;16.50;12.23;;;19.40;99.90;;;;;;5106341;28;20465;-68
2021/06/03 06:25:07;;;;;;;14.83;12.07;;;19.50;99.90;;;;;;5112169;28;20183;-68
2021/06/03 06:27:35;;;;;;;13.20;11.77;;;19.70;99.90;;;;;;5125783;28;20379;-68
2021/06/03 06:30:06;;;;;;;14.40;12.10;;;19.80;99.90;;;;;;5112951;28;20268;-68
2021/06/03 06:32:34;;;;;;;17.20;12.07;;;20.00;99.90;;;;;;5115755;28;20541;-68
2021/06/03 06:35:02;;;;;;;18.80;12.20;;;20.40;99.90;;;;;;5115769;28;20451;-68
2021/06/03 06:37:30;;;;;;;16.40;11.93;;;20.50;99.90;;;;;;5106185;28;20179;-67
2021/06/03 06:39:58;;;;;;;16.17;11.57;;;20.70;99.90;;;;;;5109512;28;20290;-68
2021/06/03 06:42:28;;;;;;;21.37;13.27;;;20.70;99.90;;;;;;5125477;28;20243;-68
2021/06/03 06:44:56;;;;;;;19.10;13.50;;;20.60;99.90;;;;;;5114055;28;20460;-67
2021/06/03 06:47:24;;;;;;;16.27;12.10;;;20.50;99.90;;;;;;5105892;28;20244;-68
2021/06/03 06:49:54;;;;;;;15.87;13.17;;;20.50;99.90;;;;;;5114571;28;20179;-66
2021/06/03 06:52:22;;;;;;;15.67;13.30;;;20.40;99.90;;;;;;5115981;28;20210;-68
2021/06/03 06:54:50;;;;;;;20.20;13.33;;;20.40;99.90;;;;;;5108350;28;20249;-68
2021/06/03 06:57:18;;;;;;;15.33;13.00;;;20.30;99.90;;;;;;5113888;28;20189;-68
2021/06/03 06:59:47;;;;;;;18.83;13.43;;;20.40;99.90;;;;;;5120904;28;20285;-68
2021/06/03 07:02:15;;;;;;;20.97;14.40;;;20.40;99.90;;;;;;5117645;28;20375;-68
2021/06/03 07:04:43;;;;;;;18.87;13.57;;;20.60;99.90;;;;;;5109916;28;20198;-68
2021/06/03 07:07:12;;;;;;;20.73;14.37;;;20.60;99.90;;;;;;5105300;28;20182;-68
2021/06/03 07:09:40;;;;;;;22.07;15.13;;;20.60;99.90;;;;;;5119584;28;20178;-67
2021/06/03 07:12:08;;;;;;;22.47;15.57;;;20.60;99.90;;;;;;5112378;28;20211;-68
2021/06/03 07:14:36;;;;;;;19.43;15.30;;;20.50;99.90;;;;;;5126139;27;20207;-68
2021/06/03 07:17:06;;;;;;;19.73;14.60;;;20.50;99.90;;;;;;5118003;28;20190;-68
2021/06/03 07:19:34;;;;;;;19.47;14.53;;;20.60;99.90;;;;;;5116162;28;20312;-68
2021/06/03 07:22:03;;;;;;;19.97;14.53;;;20.70;99.90;;;;;;5097792;28;20193;-68
2021/06/03 07:24:31;;;;;;;21.60;14.33;;;20.80;99.90;;;;;;5112890;28;20223;-68
2021/06/03 07:26:59;;;;;;;21.50;14.37;;;20.90;99.90;;;;;;5108052;28;20288;-68
2021/06/03 07:29:27;;;;;;;17.60;14.80;;;21.00;99.90;;;;;;5099482;28;20299;-68
2021/06/03 07:31:55;;;;;;;18.37;14.07;;;21.20;99.90;;;;;;5109133;28;20269;-68
2021/06/03 07:34:25;;;;;;;17.10;13.57;;;21.20;99.90;;;;;;5117979;28;20569;-68
2021/06/03 07:36:53;;;;;;;19.47;14.33;;;21.30;99.90;;;;;;5114310;28;20209;-68
2021/06/03 07:39:22;;;;;;;17.37;13.90;;;21.30;99.90;;;;;;5113770;28;20179;-68
2021/06/03 07:41:51;;;;;;;21.80;15.20;;;21.30;99.90;;;;;;5114184;28;20256;-68
2021/06/03 07:44:19;;;;;;;18.80;14.80;;;21.30;99.90;;;;;;5110021;28;20209;-68
2021/06/03 07:46:47;;;;;;;20.43;16.03;;;21.30;99.90;;;;;;5109828;28;20195;-68
2021/06/03 07:49:16;;;;;;;20.37;14.53;;;21.30;99.90;;;;;;5111972;28;20235;-67
2021/06/03 07:51:45;;;;;;;18.10;14.83;;;21.20;99.90;;;;;;5115930;28;20179;-68
2021/06/03 07:54:12;;;;;;;19.13;14.17;;;21.30;99.90;;;;;;5071204;28;20418;-67
2021/06/03 07:56:40;;;;;;;17.87;14.33;;;21.30;99.90;;;;;;5108836;28;20179;-68
2021/06/03 07:59:08;;;;;;;18.90;13.90;;;21.40;99.90;;;;;;5109842;28;20247;-68
2021/06/03 08:01:36;;;;;;;19.83;14.03;;;21.50;99.90;;;;;;5117459;28;20275;-68
2021/06/03 08:04:04;;;;;;;17.67;13.93;;;21.70;99.90;;;;;;5121426;27;20312;-68
2021/06/03 08:06:32;;;;;;;17.03;13.20;;;21.80;99.90;;;;;;5089360;28;20275;-67
2021/06/03 08:09:02;;;;;;;17.63;13.33;;;21.80;99.90;;;;;;5115334;28;20370;-67
2021/06/03 08:11:30;;;;;;;17.33;13.30;;;21.80;99.90;;;;;;5109451;28;20431;-68
2021/06/03 08:13:58;;;;;;;15.17;12.93;;;21.80;99.90;;;;;;5124680;28;20255;-68
2021/06/03 08:16:26;;;;;;;18.73;13.93;;;21.70;99.90;;;;;;5123062;28;20304;-68
2021/06/03 08:18:56;;;;;;;18.13;13.23;;;21.70;99.90;;;;;;5108764;28;20345;-68
2021/06/03 08:21:24;;;;;;;18.17;14.33;;;21.70;99.90;;;;;;5112792;28;20221;-67
2021/06/03 08:23:54;;;;;;;18.97;12.90;;;21.80;99.90;;;;;;5112357;28;20185;-68
2021/06/03 08:26:27;;;;;;;19.00;13.80;;;21.90;99.90;;;;;;5120403;28;20889;-68
2021/06/03 08:28:56;;;;;;;20.13;15.10;;;21.90;99.90;;;;;;5122934;28;20239;-68
2021/06/03 08:31:25;;;;;;;18.67;13.30;;;21.90;99.90;;;;;;5123959;28;20201;-67
2021/06/03 08:33:54;;;;;;;17.37;13.67;;;22.00;99.90;;;;;;5112388;28;20230;-68
2021/06/03 08:36:23;;;;;;;16.67;13.20;;;22.20;99.90;;;;;;5113500;28;20354;-68
2021/06/03 08:38:54;;;;;;;19.37;13.80;;;22.30;99.90;;;;;;5117668;28;20183;-69
2021/06/03 08:41:24;;;;;;;16.13;13.40;;;22.50;99.90;;;;;;5122031;28;20192;-68
2021/06/03 08:43:55;;;;;;;19.90;13.47;;;22.60;99.90;;;;;;5112332;28;20423;-69
2021/06/03 08:46:23;;;;;;;17.80;13.30;;;22.80;99.90;;;;;;5121893;28;20191;-68
2021/06/03 08:48:51;;;;;;;14.60;12.43;;;22.80;99.90;;;;;;5122448;28;20179;-66
2021/06/03 08:51:19;;;;;;;19.37;13.43;;;23.00;99.90;;;;;;5113509;28;20240;-66
2021/06/03 08:53:49;;;;;;;18.60;12.33;;;23.20;99.90;;;;;;5118285;27;20468;-68
2021/06/03 08:56:19;;;;;;;16.03;11.97;;;23.30;99.90;;;;;;5099784;27;20195;-70
2021/06/03 08:58:51;;;;;;;18.07;11.83;;;23.40;99.90;;;;;;5120243;27;20325;-68
2021/06/03 09:01:19;;;;;;;15.53;12.30;;;23.60;99.90;;;;;;5111218;28;20189;-68
2021/06/03 09:03:48;;;;;;;19.07;12.83;;;23.80;99.90;;;;;;5106487;28;20186;-68
2021/06/03 09:06:19;;;;;;;13.47;11.30;;;24.10;99.90;;;;;;5123929;28;20205;-68
2021/06/03 09:08:49;;;;;;;16.87;11.10;;;24.00;99.90;;;;;;5124791;28;20378;-68
2021/06/03 09:11:19;;;;;;;20.23;10.43;;;24.10;99.90;;;;;;5102753;28;20334;-69
2021/06/03 09:13:51;;;;;;;13.83;11.37;;;24.30;99.90;;;;;;5121765;28;20225;-70
2021/06/03 09:16:22;;;;;;;17.37;11.50;;;24.40;99.90;;;;;;5122841;28;20251;-69
2021/06/03 09:18:53;;;;;;;14.90;11.37;;;24.50;99.90;;;;;;5113422;28;20414;-69
2021/06/03 09:21:23;;;;;;;13.50;11.70;;;24.50;99.90;;;;;;5116442;28;20222;-69
2021/06/03 09:23:58;;;;;;;14.77;11.80;;;24.50;99.90;;;;;;5112141;28;20192;-68
2021/06/03 09:26:35;;;;;;;16.57;11.97;;;24.30;99.90;;;;;;5114328;28;20182;-69
2021/06/03 09:29:07;;;;;;;14.57;11.47;;;24.10;99.90;;;;;;5120481;28;20186;-65
2021/06/03 09:31:37;;;;;;;15.97;11.67;;;24.00;99.90;;;;;;5115129;28;20189;-68
2021/06/03 09:34:07;;;;;;;17.53;11.47;;;24.00;99.90;;;;;;5114626;28;20202;-68
2021/06/03 09:36:42;;;;;;;17.93;13.10;;;23.90;99.90;;;;;;5114615;28;20204;-70
2021/06/03 09:39:16;;;;;;;19.50;12.60;;;23.80;99.90;;;;;;5103640;28;20197;-69
2021/06/03 09:41:46;;;;;;;17.43;13.57;;;23.60;99.90;;;;;;5120856;28;20396;-69
2021/06/03 09:44:20;;;;;;;20.13;13.83;;;23.40;99.90;;;;;;5119941;28;20265;-69
2021/06/03 09:46:52;;;;;;;18.63;13.03;;;23.20;99.90;;;;;;5110611;28;20251;-69
2021/06/03 09:49:27;;;;;;;16.80;12.20;;;23.10;99.90;;;;;;5107337;28;20255;-69
2021/06/03 09:51:58;;;;;;;16.50;12.47;;;23.10;99.90;;;;;;5119752;28;20178;-68
2021/06/03 09:54:27;;;;;;;18.20;13.07;;;23.10;99.90;;;;;;5122667;28;20230;-69
2021/06/03 09:56:57;;;;;;;18.83;12.80;;;23.10;99.90;;;;;;5113053;27;20190;-69
2021/06/03 09:59:29;;;;;;;17.43;13.63;;;23.20;99.90;;;;;;5122117;28;20186;-68
2021/06/03 10:01:59;;;;;;;19.23;12.53;;;23.30;99.90;;;;;;5121184;28;20197;-69
2021/06/03 10:04:33;;;;;;;17.33;12.53;;;23.50;99.90;;;;;;5125958;28;20218;-67
2021/06/03 10:07:05;;;;;;;18.87;12.90;;;23.60;99.90;;;;;;5113704;28;20187;-69
2021/06/03 10:09:44;;;;;;;19.50;13.17;;;23.70;99.90;;;;;;5096746;28;20187;-69
2021/06/03 10:12:24;;;;;;;19.37;13.10;;;23.90;99.90;;;;;;5120154;28;20440;-69
2021/06/03 10:14:55;;;;;;;15.80;12.57;;;23.90;99.90;;;;;;5116869;28;20183;-69
2021/06/03 10:17:27;;;;;;;15.50;11.40;;;24.00;99.90;;;;;;5108985;28;20191;-69
2021/06/03 10:20:00;;;;;;;21.47;11.27;;;24.10;99.90;;;;;;5093609;28;20180;-68
2021/06/03 10:22:33;;;;;;;16.53;11.07;;;24.30;99.90;;;;;;5097702;28;20321;-69
2021/06/03 10:25:08;;;;;;;15.17;10.60;;;24.50;99.90;;;;;;5118636;28;20238;-68
2021/06/03 10:27:38;;;;;;;15.57;11.77;;;24.70;99.90;;;;;;5120372;28;20185;-69
2021/06/03 10:30:12;;;;;;;16.03;11.30;;;24.80;99.90;;;;;;5116373;28;20190;-66
2021/06/03 10:32:42;;;;;;;18.60;11.30;;;24.80;99.90;;;;;;5120419;28;20232;-69
2021/06/03 10:35:13;;;;;;;16.33;10.30;;;24.70;99.90;;;;;;5119691;28;20179;-69
2021/06/03 10:37:43;;;;;;;14.60;10.83;;;24.80;99.90;;;;;;5123535;28;20176;-69
2021/06/03 10:40:14;;;;;;;16.60;10.87;;;24.90;99.90;;;;;;5108854;28;20186;-69
2021/06/03 10:42:43;;;;;;;13.03;9.00;;;24.90;99.90;;;;;;5099849;28;20182;-69
2021/06/03 10:45:17;;;;;;;11.30;9.10;;;24.90;99.90;;;;;;5111667;28;20209;-68
2021/06/03 10:47:45;;;;;;;11.87;8.07;;;25.10;99.90;;;;;;5110578;28;20190;-69
2021/06/03 10:50:17;;;;;;;15.33;8.70;;;25.40;99.90;;;;;;5100393;28;20307;-69
2021/06/03 10:52:47;;;;;;;14.63;8.90;;;25.60;99.90;;;;;;5115950;28;20191;-69
2021/06/03 10:55:26;;;;;;;12.00;8.43;;;26.10;99.90;;;;;;5121095;28;20227;-69
2021/06/03 10:57:57;;;;;;;11.80;8.60;;;26.40;99.90;;;;;;5113879;28;20187;-69
2021/06/03 11:00:32;;;;;;;12.77;8.27;;;26.30;99.90;;;;;;5116291;28;20193;-68
2021/06/03 11:03:01;;;;;;;15.20;9.57;;;26.10;99.90;;;;;;5107759;28;20731;-69
2021/06/03 11:05:31;;;;;;;11.00;8.73;;;25.90;99.90;;;;;;5109569;28;20607;-68
2021/06/03 11:08:27;;;;;;;11.73;9.07;;;25.70;99.90;;;;;;5114438;28;20185;-69
2021/06/03 11:11:23;;;;;;;14.33;9.63;;;25.30;99.90;;;;;;5109321;27;20185;-69
2021/06/03 11:14:04;;;;;;;15.63;10.70;;;24.90;99.90;;;;;;5109168;28;20269;-69
2021/06/03 11:16:53;;;;;;;12.67;9.57;;;24.80;99.90;;;;;;5116048;28;20239;-69
2021/06/03 11:19:23;;;;;;;14.40;9.43;;;24.90;99.90;;;;;;5119491;28;20199;-69
2021/06/03 11:22:08;;;;;;;12.87;9.43;;;25.00;99.90;;;;;;5111867;28;20187;-68
2021/06/03 11:24:47;;;;;;;10.67;8.50;;;24.90;99.90;;;;;;5105387;28;20188;-69
2021/06/03 11:27:20;;;;;;;9.37;7.40;;;25.10;99.90;;;;;;5118357;28;20204;-68
2021/06/03 11:30:11;;;;;;;9.07;8.17;;;25.30;99.90;;;;;;5114186;28;20199;-69
2021/06/03 11:32:51;;;;;;;12.87;7.53;;;25.70;99.90;;;;;;5110035;27;20207;-69
2021/06/03 11:35:29;;;;;;;12.67;8.70;;;26.60;99.90;;;;;;5110016;28;20182;-69
2021/06/03 11:37:57;;;;;;;8.47;7.70;;;27.20;99.90;;;;;;5105040;28;20286;-70
2021/06/03 11:40:26;;;;;;;9.93;7.20;;;27.30;99.90;;;;;;5111230;28;20199;-69
2021/06/03 11:43:09;;;;;;;11.13;7.23;;;26.80;99.90;;;;;;5113461;28;20180;-68
2021/06/03 11:45:44;;;;;;;9.40;8.00;;;26.50;99.90;;;;;;5120774;28;20296;-69
2021/06/03 11:48:22;;;;;;;10.20;8.10;;;26.10;99.90;;;;;;5121882;28;20306;-68
2021/06/03 11:51:04;;;;;;;8.63;7.63;;;25.80;99.90;;;;;;5109168;28;20209;-69
2021/06/03 11:53:33;;;;;;;14.67;9.00;;;25.70;99.90;;;;;;5111972;28;20244;-69
2021/06/03 11:56:17;;;;;;;13.13;7.90;;;25.70;99.90;;;;;;5113573;28;20479;-68
2021/06/03 11:58:54;;;;;;;10.30;8.87;;;25.90;99.90;;;;;;5114107;28;20177;-68
2021/06/03 12:01:38;;;;;;;11.67;9.60;;;26.00;99.90;;;;;;5117175;28;20189;-69
2021/06/03 12:04:26;;;;;;;14.57;9.87;;;25.90;99.90;;;;;;5116288;27;20400;-69
2021/06/03 12:06:53;;;;;;;10.57;8.30;;;25.80;99.90;;;;;;5118457;28;20203;-68
2021/06/03 12:09:25;;;;;;;13.93;10.57;;;25.70;99.90;;;;;;5120178;28;20186;-68
2021/06/03 12:11:54;;;;;;;12.67;9.67;;;25.50;99.90;;;;;;5113098;28;20241;-69
2021/06/03 12:14:25;;;;;;;13.70;10.40;;;25.40;99.90;;;;;;5127644;28;20207;-69
2021/06/03 12:16:56;;;;;;;15.20;9.63;;;25.40;99.90;;;;;;5098620;28;20182;-69
2021/06/03 12:19:27;;;;;;;13.73;9.50;;;25.40;99.90;;;;;;5106649;28;20242;-69
2021/06/03 12:22:01;;;;;;;16.60;10.00;;;25.30;99.90;;;;;;5111047;28;20262;-69
2021/06/03 12:24:38;;;;;;;10.53;8.97;;;25.30;99.90;;;;;;5114980;28;20213;-69
2021/06/03 12:27:17;;;;;;;14.23;9.90;;;25.50;99.90;;;;;;5122298;28;20226;-69
2021/06/03 12:29:45;;;;;;;16.87;9.77;;;25.70;99.90;;;;;;5119912;28;20219;-68
2021/06/03 12:32:14;;;;;;;17.60;11.60;;;26.00;99.90;;;;;;5117232;28;20185;-68
2021/06/03 12:34:44;;;;;;;20.90;10.47;;;26.30;99.90;;;;;;5122945;28;20221;-69
2021/06/03 12:37:28;;;;;;;14.97;10.23;;;26.60;99.90;;;;;;5121673;28;20341;-68
2021/06/03 12:39:57;;;;;;;20.47;11.07;;;26.50;99.90;;;;;;5126109;28;20187;-68
2021/06/03 12:42:28;;;;;;;12.90;9.83;;;26.60;99.90;;;;;;5122270;28;20189;-68
2021/06/03 12:45:01;;;;;;;12.17;9.40;;;26.70;99.90;;;;;;5123891;28;20213;-69
2021/06/03 12:47:32;;;;;;;14.60;9.77;;;26.80;99.90;;;;;;5113107;28;20213;-68
2021/06/03 12:50:12;;;;;;;11.80;8.90;;;26.80;99.90;;;;;;5124052;28;20188;-69
2021/06/03 12:52:40;;;;;;;11.80;8.63;;;26.80;99.90;;;;;;5123710;28;20408;-69
2021/06/03 12:55:09;;;;;;;12.57;8.67;;;26.90;99.90;;;;;;5097789;28;20222;-68